Time;durP1;ratioP1;P1;durP2;ratioP2;P2;SDS_P1;SDS_P2;PMS_P1;PMS_P2;Temp;Humidity;BMP_temperature;BMP_pressure;BME280_temperature;BME280_humidity;BME280_pressure;Samples;Min_cycle;Max_cycle;Signal;HPM_P1;HPM_P2
2022/12/21 00:01:53;;;;;;;;;;;19.50;46.00;;;;;;5051411;28;19924;-71
2022/12/21 00:04:20;;;;;;;;;;;19.50;46.00;;;;;;5031875;28;19991;-72
2022/12/21 00:06:46;;;;;;;;;;;19.50;46.00;;;;;;5065921;28;19928;-72
2022/12/21 00:09:14;;;;;;;;;;;19.50;46.00;;;;;;5059308;28;19974;-71
2022/12/21 00:11:41;;;;;;;;;;;19.40;45.90;;;;;;5066898;28;20043;-72
2022/12/21 00:14:08;;;;;;;;;;;19.40;45.90;;;;;;5057708;28;19996;-73
2022/12/21 00:16:36;;;;;;;;;;;19.40;45.90;;;;;;5053822;28;19929;-71
2022/12/21 00:19:05;;;;;;;;;;;19.40;45.90;;;;;;5040187;28;19983;-71
2022/12/21 00:21:32;;;;;;;;;;;19.40;45.90;;;;;;5053807;28;19955;-70
2022/12/21 00:23:59;;;;;;;;;;;19.40;45.90;;;;;;5053836;28;20020;-71
2022/12/21 00:26:26;;;;;;;;;;;19.40;45.90;;;;;;5069857;28;19999;-71
2022/12/21 00:28:53;;;;;;;;;;;19.40;45.90;;;;;;5052535;28;19952;-71
2022/12/21 00:31:20;;;;;;;;;;;19.40;45.90;;;;;;5052409;28;19925;-72
2022/12/21 00:33:47;;;;;;;;;;;19.40;45.90;;;;;;5052673;28;19978;-72
2022/12/21 00:36:16;;;;;;;;;;;19.40;45.90;;;;;;5055066;28;19931;-72
2022/12/21 00:38:43;;;;;;;;;;;19.40;45.90;;;;;;5069735;28;19925;-71
2022/12/21 00:41:11;;;;;;;;;;;19.40;45.90;;;;;;5068262;28;19995;-71
2022/12/21 00:43:38;;;;;;;;;;;19.40;45.90;;;;;;5070199;28;19929;-71
2022/12/21 00:46:05;;;;;;;;;;;19.40;45.90;;;;;;5070326;28;19931;-72
2022/12/21 00:48:32;;;;;;;;;;;19.40;45.90;;;;;;5070229;28;19924;-71
2022/12/21 00:51:03;;;;;;;;;;;19.40;45.90;;;;;;5054768;28;20326;-72
2022/12/21 00:53:31;;;;;;;;;;;19.40;45.90;;;;;;5069701;28;19924;-71
2022/12/21 00:55:58;;;;;;;;;;;19.40;45.90;;;;;;5070207;28;19971;-72
2022/12/21 00:58:25;;;;;;;;;;;19.40;45.90;;;;;;5067200;28;19925;-71
2022/12/21 01:00:52;;;;;;;;;;;19.40;45.90;;;;;;5053915;28;19991;-71
2022/12/21 01:03:19;;;;;;;;;;;19.40;45.90;;;;;;5054857;28;19975;-71
2022/12/21 01:05:46;;;;;;;;;;;19.40;45.90;;;;;;5055658;28;19948;-71
2022/12/21 01:08:13;;;;;;;;;;;19.40;45.90;;;;;;5053318;28;19925;-71
2022/12/21 01:10:41;;;;;;;;;;;19.40;45.90;;;;;;5070188;28;19924;-71
2022/12/21 01:13:07;;;;;;;;;;;19.40;45.90;;;;;;5055006;28;19947;-71
2022/12/21 01:15:34;;;;;;;;;;;19.40;45.90;;;;;;5069199;28;19931;-72
2022/12/21 01:18:01;;;;;;;;;;;19.30;45.80;;;;;;5070091;28;19925;-71
2022/12/21 01:20:28;;;;;;;;;;;19.30;45.80;;;;;;5054605;28;19928;-73
2022/12/21 01:22:54;;;;;;;;;;;19.30;45.80;;;;;;5069967;28;19925;-71
2022/12/21 01:25:21;;;;;;;;;;;19.30;45.80;;;;;;5045027;28;19970;-71
2022/12/21 01:27:50;;;;;;;;;;;19.30;45.80;;;;;;5052836;28;20429;-72
2022/12/21 01:30:16;;;;;;;;;;;19.30;45.80;;;;;;5064266;28;19929;-72
2022/12/21 01:32:43;;;;;;;;;;;19.30;45.80;;;;;;5048051;28;19990;-72
2022/12/21 01:35:10;;;;;;;;;;;19.30;45.80;;;;;;5065446;28;19932;-71
2022/12/21 01:37:37;;;;;;;;;;;19.30;45.80;;;;;;5068158;28;19928;-71
2022/12/21 01:40:04;;;;;;;;;;;19.30;45.80;;;;;;5069737;28;19924;-71
2022/12/21 01:42:30;;;;;;;;;;;19.30;45.80;;;;;;5054275;28;19970;-72
2022/12/21 01:45:03;;;;;;;;;;;19.30;45.70;;;;;;5040563;28;19925;-72
2022/12/21 01:47:31;;;;;;;;;;;19.30;45.80;;;;;;5033055;28;20497;-71
2022/12/21 01:50:00;;;;;;;;;;;19.30;45.80;;;;;;5033268;28;19979;-71
2022/12/21 01:52:28;;;;;;;;;;;19.30;45.80;;;;;;5052783;28;19932;-71
2022/12/21 01:54:55;;;;;;;;;;;19.30;45.80;;;;;;5053114;28;19925;-71
2022/12/21 01:57:22;;;;;;;;;;;19.30;45.70;;;;;;5052873;28;19994;-71
2022/12/21 01:59:49;;;;;;;;;;;19.30;45.80;;;;;;5069456;28;19933;-71
2022/12/21 02:02:19;;;;;;;;;;;19.30;45.70;;;;;;5069694;28;20322;-71
2022/12/21 02:04:46;;;;;;;;;;;19.30;45.70;;;;;;5048439;28;19925;-71
2022/12/21 02:07:13;;;;;;;;;;;19.30;45.70;;;;;;5051161;28;19925;-72
2022/12/21 02:09:40;;;;;;;;;;;19.30;45.70;;;;;;5049834;28;19924;-71
2022/12/21 02:12:07;;;;;;;;;;;19.30;45.80;;;;;;5053550;28;20258;-71
2022/12/21 02:14:34;;;;;;;;;;;19.30;45.70;;;;;;5053457;28;20449;-71
2022/12/21 02:17:02;;;;;;;;;;;19.30;45.70;;;;;;5053791;28;19933;-71
2022/12/21 02:19:42;;;;;;;;;;;19.30;45.70;;;;;;5048389;28;19933;-71
2022/12/21 02:22:09;;;;;;;;;;;19.30;45.70;;;;;;5049600;28;19929;-71
2022/12/21 02:24:45;;;;;;;;;;;19.30;45.70;;;;;;5048591;28;19929;-71
2022/12/21 02:27:14;;;;;;;;;;;19.30;45.70;;;;;;5051618;28;20418;-71
2022/12/21 02:29:59;;;;;;;;;;;19.30;45.70;;;;;;5066745;28;19924;-71
2022/12/21 02:32:28;;;;;;;;;;;19.30;45.70;;;;;;5044990;28;19932;-71
2022/12/21 02:34:56;;;;;;;;;;;19.30;45.70;;;;;;5053881;28;19928;-71
2022/12/21 02:37:23;;;;;;;;;;;19.30;45.70;;;;;;5046656;28;19951;-71
2022/12/21 02:39:51;;;;;;;;;;;19.30;45.70;;;;;;5059933;28;19925;-71
2022/12/21 02:45:00;;;;;;;;;;;19.30;45.70;;;;;;5045619;28;20318;-72
2022/12/21 02:47:30;;;;;;;;;;;19.30;45.70;;;;;;5068503;28;19925;-71
2022/12/21 02:49:57;;;;;;;;;;;19.30;45.70;;;;;;5054042;28;19925;-72
2022/12/21 02:52:27;;;;;;;;;;;19.30;45.70;;;;;;5060151;28;19974;-72
2022/12/21 02:54:54;;;;;;;;;;;19.30;45.60;;;;;;5065576;28;20201;-72
2022/12/21 02:57:29;;;;;;;;;;;19.30;45.60;;;;;;5068054;28;19975;-72
2022/12/21 02:59:56;;;;;;;;;;;19.30;45.60;;;;;;5056958;28;19929;-71
2022/12/21 03:02:29;;;;;;;;;;;19.30;45.60;;;;;;5052478;28;19924;-71
2022/12/21 03:05:03;;;;;;;;;;;19.20;45.60;;;;;;5062428;28;19925;-72
2022/12/21 03:07:33;;;;;;;;;;;19.20;45.60;;;;;;5060073;28;19924;-72
2022/12/21 03:10:03;;;;;;;;;;;19.20;45.60;;;;;;5067596;28;19937;-72
2022/12/21 03:12:31;;;;;;;;;;;19.20;45.60;;;;;;5066831;28;19928;-71
2022/12/21 03:14:59;;;;;;;;;;;19.20;45.60;;;;;;5049957;28;19925;-72
2022/12/21 03:17:30;;;;;;;;;;;19.20;45.60;;;;;;5056938;28;19971;-71
2022/12/21 03:19:58;;;;;;;;;;;19.20;45.70;;;;;;5067474;28;19932;-72
2022/12/21 03:22:27;;;;;;;;;;;19.20;45.60;;;;;;5056980;28;20015;-72
2022/12/21 03:24:56;;;;;;;;;;;19.20;45.60;;;;;;5067015;28;19978;-72
2022/12/21 03:27:24;;;;;;;;;;;19.20;45.60;;;;;;5047360;28;19929;-71
2022/12/21 03:29:52;;;;;;;;;;;19.20;45.60;;;;;;5057506;28;19970;-71
2022/12/21 03:32:20;;;;;;;;;;;19.20;45.60;;;;;;5067631;28;19982;-72
2022/12/21 03:34:49;;;;;;;;;;;19.20;45.50;;;;;;5048873;28;19925;-71
2022/12/21 03:37:17;;;;;;;;;;;19.20;45.50;;;;;;5067888;28;19990;-72
2022/12/21 03:39:44;;;;;;;;;;;19.20;45.60;;;;;;5061340;28;19979;-71
2022/12/21 03:42:12;;;;;;;;;;;19.20;45.60;;;;;;5065805;28;19929;-72
2022/12/21 03:44:39;;;;;;;;;;;19.20;45.50;;;;;;5067460;28;19951;-72
2022/12/21 03:47:07;;;;;;;;;;;19.20;45.50;;;;;;5049080;28;19924;-73
2022/12/21 03:49:34;;;;;;;;;;;19.20;45.50;;;;;;5046546;28;19925;-72
2022/12/21 03:52:05;;;;;;;;;;;19.20;45.50;;;;;;5050677;28;19928;-73
2022/12/21 03:54:32;;;;;;;;;;;19.20;45.50;;;;;;5067673;28;19928;-72
2022/12/21 03:56:59;;;;;;;;;;;19.20;45.50;;;;;;5051087;28;19924;-72
2022/12/21 03:59:26;;;;;;;;;;;19.20;45.50;;;;;;5067550;28;19929;-72
2022/12/21 04:01:55;;;;;;;;;;;19.20;45.60;;;;;;5043647;28;19982;-71
2022/12/21 04:04:23;;;;;;;;;;;19.20;45.50;;;;;;5050513;28;19974;-72
2022/12/21 04:06:50;;;;;;;;;;;19.20;45.50;;;;;;5048352;28;19929;-72
2022/12/21 04:09:18;;;;;;;;;;;19.20;45.50;;;;;;5064155;28;20341;-72
2022/12/21 04:14:29;;;;;;;;;;;19.20;45.50;;;;;;5043611;28;19925;-72
2022/12/21 04:16:56;;;;;;;;;;;19.20;45.50;;;;;;5060362;28;19990;-72
2022/12/21 04:22:07;;;;;;;;;;;19.20;45.50;;;;;;5055015;28;20466;-72
2022/12/21 04:30:03;;;;;;;;;;;19.20;45.40;;;;;;5048395;28;19925;-71
2022/12/21 04:32:30;;;;;;;;;;;19.10;45.30;;;;;;5047119;28;19940;-71
2022/12/21 04:34:57;;;;;;;;;;;19.20;45.40;;;;;;5057605;28;20339;-72
2022/12/21 04:37:32;;;;;;;;;;;19.10;45.30;;;;;;5067286;28;19932;-72
2022/12/21 04:40:01;;;;;;;;;;;19.20;45.40;;;;;;5043174;28;19926;-71
2022/12/21 04:42:28;;;;;;;;;;;19.20;45.40;;;;;;5042703;28;19932;-71
2022/12/21 04:44:54;;;;;;;;;;;19.10;45.30;;;;;;5050428;28;19929;-71
2022/12/21 04:47:21;;;;;;;;;;;19.10;45.30;;;;;;5066992;28;19994;-72
2022/12/21 04:49:48;;;;;;;;;;;19.20;45.40;;;;;;5048720;28;19925;-72
2022/12/21 04:52:15;;;;;;;;;;;19.10;45.30;;;;;;5049925;28;19924;-72
2022/12/21 04:54:41;;;;;;;;;;;19.10;45.30;;;;;;5050113;28;19924;-72
2022/12/21 04:57:10;;;;;;;;;;;19.10;45.30;;;;;;5050613;28;20024;-71
2022/12/21 04:59:36;;;;;;;;;;;19.10;45.30;;;;;;5066924;28;19933;-71
2022/12/21 05:02:03;;;;;;;;;;;19.10;45.30;;;;;;5068416;28;19928;-72
2022/12/21 05:04:30;;;;;;;;;;;19.10;45.20;;;;;;5064397;28;19959;-72
2022/12/21 05:06:57;;;;;;;;;;;19.10;45.20;;;;;;5044617;28;20044;-72
2022/12/21 05:09:25;;;;;;;;;;;19.10;45.20;;;;;;5053679;28;19925;-72
2022/12/21 05:11:52;;;;;;;;;;;19.10;45.20;;;;;;5053737;28;19967;-72
2022/12/21 05:14:20;;;;;;;;;;;19.10;45.80;;;;;;5066373;28;19929;-72
2022/12/21 05:16:47;;;;;;;;;;;19.10;45.20;;;;;;5033826;28;19933;-72
2022/12/21 05:19:13;;;;;;;;;;;19.10;45.20;;;;;;5049814;28;19979;-72
2022/12/21 05:21:40;;;;;;;;;;;19.10;45.20;;;;;;5033432;28;19929;-72
2022/12/21 05:24:07;;;;;;;;;;;19.10;45.20;;;;;;5064800;28;19925;-72
2022/12/21 05:26:34;;;;;;;;;;;19.10;45.20;;;;;;5063862;28;19924;-73
2022/12/21 05:29:01;;;;;;;;;;;19.10;45.20;;;;;;5054554;28;19936;-73
2022/12/21 05:31:29;;;;;;;;;;;19.10;45.20;;;;;;5053297;28;19925;-71
2022/12/21 05:33:56;;;;;;;;;;;19.10;45.20;;;;;;5068171;28;19924;-71
2022/12/21 05:36:24;;;;;;;;;;;19.10;45.10;;;;;;5049944;28;19929;-71
2022/12/21 05:38:51;;;;;;;;;;;19.10;45.20;;;;;;5037576;28;20181;-72
2022/12/21 05:41:17;;;;;;;;;;;19.10;45.10;;;;;;5044966;28;20709;-71
2022/12/21 05:43:45;;;;;;;;;;;19.10;45.10;;;;;;5052880;28;19929;-73
2022/12/21 05:46:12;;;;;;;;;;;19.10;45.10;;;;;;5069732;28;19990;-73
2022/12/21 05:48:40;;;;;;;;;;;19.10;45.10;;;;;;5054234;28;19925;-73
2022/12/21 05:51:07;;;;;;;;;;;19.10;45.10;;;;;;5053072;28;19925;-72
2022/12/21 05:53:34;;;;;;;;;;;19.10;45.10;;;;;;5052970;28;19960;-72
2022/12/21 05:56:01;;;;;;;;;;;19.10;45.10;;;;;;5069439;28;19987;-72
2022/12/21 05:58:28;;;;;;;;;;;19.10;45.10;;;;;;5048337;28;20020;-71
2022/12/21 06:00:55;;;;;;;;;;;19.10;45.10;;;;;;5049226;28;19975;-71
2022/12/21 06:03:22;;;;;;;;;;;19.10;45.00;;;;;;5051892;28;20799;-71
2022/12/21 06:05:50;;;;;;;;;;;19.10;45.00;;;;;;5049365;28;19925;-71
2022/12/21 06:08:16;;;;;;;;;;;19.10;45.00;;;;;;5068030;28;20484;-72
2022/12/21 06:10:44;;;;;;;;;;;19.10;45.60;;;;;;5067743;28;19971;-72
2022/12/21 06:13:11;;;;;;;;;;;19.10;45.00;;;;;;5066367;28;19935;-72
2022/12/21 06:15:38;;;;;;;;;;;19.00;44.90;;;;;;5068586;28;19952;-71
2022/12/21 06:18:05;;;;;;;;;;;19.10;45.00;;;;;;5059799;28;19925;-72
2022/12/21 06:20:32;;;;;;;;;;;19.10;45.00;;;;;;5051591;28;19928;-72
2022/12/21 06:23:00;;;;;;;;;;;19.10;45.00;;;;;;5068187;28;19924;-72
2022/12/21 06:25:27;;;;;;;;;;;19.10;45.00;;;;;;5054629;28;19928;-73
2022/12/21 06:27:54;;;;;;;;;;;19.10;44.90;;;;;;5068492;28;19955;-72
2022/12/21 06:30:21;;;;;;;;;;;19.00;44.80;;;;;;5068145;28;19929;-73
2022/12/21 06:32:48;;;;;;;;;;;19.10;44.90;;;;;;5062525;28;19975;-72
2022/12/21 06:35:14;;;;;;;;;;;19.00;44.80;;;;;;5062737;28;19967;-71
2022/12/21 06:37:41;;;;;;;;;;;19.10;44.90;;;;;;5067814;28;19940;-72
2022/12/21 06:40:10;;;;;;;;;;;19.00;44.80;;;;;;5048447;28;20337;-72
2022/12/21 06:42:37;;;;;;;;;;;19.10;44.90;;;;;;5067383;28;19929;-73
2022/12/21 06:45:04;;;;;;;;;;;19.10;44.80;;;;;;5050925;28;19925;-72
2022/12/21 06:47:31;;;;;;;;;;;19.10;44.80;;;;;;5059386;28;19929;-73
2022/12/21 06:49:57;;;;;;;;;;;19.10;44.80;;;;;;5048686;28;20003;-72
2022/12/21 06:52:24;;;;;;;;;;;19.10;44.80;;;;;;5050574;28;19974;-71
2022/12/21 06:54:51;;;;;;;;;;;19.10;44.80;;;;;;5065831;28;19974;-72
2022/12/21 06:57:19;;;;;;;;;;;19.10;44.80;;;;;;5062524;28;20084;-71
2022/12/21 06:59:46;;;;;;;;;;;19.10;44.80;;;;;;5066012;28;19925;-72
2022/12/21 07:02:13;;;;;;;;;;;19.10;44.80;;;;;;5046080;28;19925;-71
2022/12/21 07:04:39;;;;;;;;;;;19.10;44.90;;;;;;5067473;28;19925;-72
2022/12/21 07:07:06;;;;;;;;;;;19.00;44.70;;;;;;5051043;28;19990;-72
2022/12/21 07:09:33;;;;;;;;;;;19.10;44.90;;;;;;5052866;28;19936;-72
2022/12/21 07:12:00;;;;;;;;;;;19.10;44.90;;;;;;5047365;28;20350;-72
2022/12/21 07:14:28;;;;;;;;;;;19.10;44.90;;;;;;5052813;28;19972;-72
2022/12/21 07:16:54;;;;;;;;;;;19.10;44.90;;;;;;5052179;28;19931;-72
2022/12/21 07:19:21;;;;;;;;;;;19.10;45.50;;;;;;5050959;28;19936;-71
2022/12/21 07:21:48;;;;;;;;;;;19.10;44.90;;;;;;5060171;28;19960;-71
2022/12/21 07:24:15;;;;;;;;;;;19.10;45.00;;;;;;5068279;28;19932;-72
2022/12/21 07:26:42;;;;;;;;;;;19.10;44.90;;;;;;5069325;28;19939;-72
2022/12/21 07:29:10;;;;;;;;;;;19.10;44.90;;;;;;5032725;28;19932;-71
2022/12/21 07:31:38;;;;;;;;;;;19.10;44.90;;;;;;5050273;28;19932;-72
2022/12/21 07:34:05;;;;;;;;;;;19.00;44.80;;;;;;5053048;28;19928;-71
2022/12/21 07:36:31;;;;;;;;;;;19.10;44.90;;;;;;5051512;28;19929;-72
2022/12/21 07:38:58;;;;;;;;;;;19.10;44.90;;;;;;5052382;28;19924;-73
2022/12/21 07:41:25;;;;;;;;;;;19.10;44.90;;;;;;5068475;28;19936;-72
2022/12/21 07:43:52;;;;;;;;;;;19.10;45.00;;;;;;5050985;28;19932;-61
2022/12/21 07:46:18;;;;;;;;;;;19.10;45.00;;;;;;5052243;28;19929;-61
2022/12/21 07:48:47;;;;;;;;;;;19.10;44.90;;;;;;5052436;28;19925;-62
2022/12/21 07:51:13;;;;;;;;;;;19.10;44.90;;;;;;5056696;28;19925;-61
2022/12/21 07:53:40;;;;;;;;;;;19.10;44.80;;;;;;5034918;28;19925;-70
2022/12/21 07:56:07;;;;;;;;;;;19.10;44.80;;;;;;5063856;28;19932;-68
2022/12/21 07:58:35;;;;;;;;;;;19.00;44.70;;;;;;5063291;28;20379;-72
2022/12/21 08:01:06;;;;;;;;;;;19.00;44.70;;;;;;5066159;28;20131;-72
2022/12/21 08:03:32;;;;;;;;;;;19.00;44.80;;;;;;5048606;28;19932;-72
2022/12/21 08:06:00;;;;;;;;;;;19.00;44.80;;;;;;5063514;28;19983;-71
2022/12/21 08:08:27;;;;;;;;;;;19.10;44.90;;;;;;5049362;28;19971;-72
2022/12/21 08:10:54;;;;;;;;;;;19.10;44.90;;;;;;5046565;28;19975;-69
2022/12/21 08:13:21;;;;;;;;;;;19.10;44.90;;;;;;5046235;28;19971;-69
2022/12/21 08:15:48;;;;;;;;;;;19.10;44.90;;;;;;5050343;28;19932;-70
2022/12/21 08:18:14;;;;;;;;;;;19.10;44.90;;;;;;5041908;28;19995;-70
2022/12/21 08:20:43;;;;;;;;;;;19.10;45.00;;;;;;5050365;28;19925;-70
2022/12/21 08:23:11;;;;;;;;;;;19.10;44.90;;;;;;5033703;28;20379;-69
2022/12/21 08:25:38;;;;;;;;;;;19.10;44.90;;;;;;5046233;28;19928;-70
2022/12/21 08:28:05;;;;;;;;;;;19.10;45.00;;;;;;5050126;28;19979;-69
2022/12/21 08:30:31;;;;;;;;;;;19.10;45.00;;;;;;5049261;28;19928;-69
2022/12/21 08:32:58;;;;;;;;;;;19.10;45.00;;;;;;5051032;28;19994;-70
2022/12/21 08:35:25;;;;;;;;;;;19.10;45.00;;;;;;5050620;28;19924;-70
2022/12/21 08:37:52;;;;;;;;;;;19.10;45.00;;;;;;5054008;28;19924;-70
2022/12/21 08:40:21;;;;;;;;;;;19.10;45.00;;;;;;5052722;28;19975;-71
2022/12/21 08:42:47;;;;;;;;;;;19.10;45.00;;;;;;5066294;28;19960;-68
2022/12/21 08:45:14;;;;;;;;;;;19.20;45.10;;;;;;5055351;28;19928;-68
2022/12/21 08:47:41;;;;;;;;;;;19.20;45.10;;;;;;5055018;28;19960;-68
2022/12/21 08:50:08;;;;;;;;;;;19.20;45.10;;;;;;5070465;28;19979;-68
2022/12/21 08:52:35;;;;;;;;;;;19.20;45.10;;;;;;5053273;28;19925;-70
2022/12/21 08:55:01;;;;;;;;;;;19.20;45.10;;;;;;5053482;28;19979;-69
2022/12/21 08:57:30;;;;;;;;;;;19.20;45.20;;;;;;5063892;28;19963;-69
2022/12/21 08:59:57;;;;;;;;;;;19.20;45.20;;;;;;5053959;28;19924;-69
2022/12/21 09:02:23;;;;;;;;;;;19.20;45.20;;;;;;5051526;28;19978;-68
2022/12/21 09:04:50;;;;;;;;;;;19.20;45.20;;;;;;5062782;28;19935;-69
2022/12/21 09:07:17;;;;;;;;;;;19.20;45.20;;;;;;5048109;28;19979;-69
2022/12/21 09:09:43;;;;;;;;;;;19.20;45.30;;;;;;5069121;28;19972;-68
2022/12/21 09:12:10;;;;;;;;;;;19.20;45.30;;;;;;5069388;28;20331;-68
2022/12/21 09:14:38;;;;;;;;;;;19.20;45.30;;;;;;5052860;28;19924;-71
2022/12/21 09:17:05;;;;;;;;;;;19.30;45.40;;;;;;5046966;28;20008;-68
2022/12/21 09:19:32;;;;;;;;;;;19.30;45.40;;;;;;5047820;28;19971;-69
2022/12/21 09:21:59;;;;;;;;;;;19.30;45.40;;;;;;5039081;28;19925;-70
2022/12/21 09:24:26;;;;;;;;;;;19.30;45.40;;;;;;5046083;28;19928;-72
2022/12/21 09:26:52;;;;;;;;;;;19.30;45.40;;;;;;5058469;28;20011;-69
2022/12/21 09:29:22;;;;;;;;;;;19.30;45.40;;;;;;5060800;28;19933;-69
2022/12/21 09:31:50;;;;;;;;;;;19.30;45.40;;;;;;5053874;28;19963;-68
2022/12/21 09:34:17;;;;;;;;;;;19.30;45.40;;;;;;5053139;28;19939;-71
2022/12/21 09:36:44;;;;;;;;;;;19.30;45.40;;;;;;5063351;28;20001;-71
2022/12/21 09:39:11;;;;;;;;;;;19.30;45.40;;;;;;5052258;28;19963;-68
2022/12/21 09:41:38;;;;;;;;;;;;;;;;;;5050098;28;19924;-68
2022/12/21 09:44:08;;;;;;;;;;;19.30;44.90;;;;;;5068557;28;19971;-73
2022/12/21 09:46:35;;;;;;;;;;;19.40;45.60;;;;;;5052283;28;19975;-73
2022/12/21 09:49:04;;;;;;;;;;;19.30;45.50;;;;;;5048473;28;20378;-73
2022/12/21 09:51:31;;;;;;;;;;;19.40;45.60;;;;;;5052102;28;19925;-71
2022/12/21 09:53:59;;;;;;;;;;;19.40;45.60;;;;;;5051552;28;19974;-71
2022/12/21 09:56:26;;;;;;;;;;;19.40;45.60;;;;;;5058907;28;19925;-75
2022/12/21 09:58:53;;;;;;;;;;;19.40;45.60;;;;;;5060950;28;19978;-80
2022/12/21 10:01:21;;;;;;;;;;;19.40;46.20;;;;;;5065973;28;19924;-71
2022/12/21 10:03:51;;;;;;;;;;;19.40;45.60;;;;;;5051229;28;19947;-70
2022/12/21 10:06:26;;;;;;;;;;;19.40;45.60;;;;;;5043158;28;19929;-73
2022/12/21 10:09:09;;;;;;;;;;;19.40;45.60;;;;;;5049641;28;20303;-73
2022/12/21 10:11:42;;;;;;;;;;;19.40;45.60;;;;;;5044909;28;19925;-71
2022/12/21 10:14:10;;;;;;;;;;;19.40;45.60;;;;;;5064894;28;20566;-72
2022/12/21 10:16:40;;;;;;;;;;;19.40;45.60;;;;;;5068498;28;19951;-71
2022/12/21 10:19:08;;;;;;;;;;;19.50;45.70;;;;;;5067493;28;20036;-72
2022/12/21 10:21:40;;;;;;;;;;;19.40;45.60;;;;;;5051221;28;19929;-72
2022/12/21 10:24:19;;;;;;;;;;;19.40;45.60;;;;;;5051030;28;20450;-72
2022/12/21 10:26:45;;;;;;;;;;;19.40;45.60;;;;;;5046988;28;19970;-71
2022/12/21 10:29:12;;;;;;;;;;;19.40;45.60;;;;;;5053763;28;19925;-72
2022/12/21 10:31:40;;;;;;;;;;;19.40;45.60;;;;;;5067790;28;19929;-71
2022/12/21 10:34:12;;;;;;;;;;;19.50;45.70;;;;;;5068291;28;20047;-73
2022/12/21 10:36:40;;;;;;;;;;;19.50;45.70;;;;;;5052648;28;19978;-71
2022/12/21 10:39:09;;;;;;;;;;;19.40;45.60;;;;;;5067437;28;19925;-72
2022/12/21 10:41:37;;;;;;;;;;;19.50;45.70;;;;;;5051267;28;19968;-71
2022/12/21 10:44:04;;;;;;;;;;;19.50;45.70;;;;;;5049833;28;20187;-73
2022/12/21 10:46:32;;;;;;;;;;;19.40;45.60;;;;;;5065911;28;19970;-70
2022/12/21 10:49:00;;;;;;;;;;;19.40;45.60;;;;;;5065203;28;19964;-76
2022/12/21 10:51:27;;;;;;;;;;;19.50;45.80;;;;;;5065367;28;20048;-71
2022/12/21 10:53:59;;;;;;;;;;;19.50;45.80;;;;;;5052281;28;20690;-70
2022/12/21 10:56:26;;;;;;;;;;;19.50;45.70;;;;;;5051241;28;19956;-71
2022/12/21 10:58:53;;;;;;;;;;;19.50;45.80;;;;;;5052022;28;20440;-71
2022/12/21 11:01:21;;;;;;;;;;;19.50;45.80;;;;;;5066447;28;19929;-74
2022/12/21 11:03:50;;;;;;;;;;;19.50;45.80;;;;;;5062430;28;20011;-69
2022/12/21 11:06:18;;;;;;;;;;;19.50;45.80;;;;;;5051191;28;19932;-71
2022/12/21 11:08:46;;;;;;;;;;;19.50;45.80;;;;;;5067378;28;19944;-72
2022/12/21 11:11:27;;;;;;;;;;;19.50;45.80;;;;;;5067916;28;19925;-72
2022/12/21 11:13:56;;;;;;;;;;;19.50;45.80;;;;;;5060914;28;19979;-67
2022/12/21 11:16:23;;;;;;;;;;;19.50;45.80;;;;;;5056434;28;19925;-66
2022/12/21 11:18:50;;;;;;;;;;;19.50;45.80;;;;;;5039479;28;19960;-68
2022/12/21 11:21:30;;;;;;;;;;;19.50;45.80;;;;;;5042708;28;19982;-69
2022/12/21 11:23:57;;;;;;;;;;;19.50;45.80;;;;;;5062787;28;19963;-68
2022/12/21 11:26:27;;;;;;;;;;;19.50;45.80;;;;;;5040237;28;19957;-68
2022/12/21 11:28:58;;;;;;;;;;;19.50;45.80;;;;;;5063949;28;19929;-68
2022/12/21 11:31:26;;;;;;;;;;;19.50;45.80;;;;;;5051441;28;20367;-68
2022/12/21 11:33:53;;;;;;;;;;;19.50;45.80;;;;;;5031942;28;20031;-68
2022/12/21 11:36:20;;;;;;;;;;;19.50;45.80;;;;;;5061039;28;19929;-68
2022/12/21 11:38:47;;;;;;;;;;;19.50;45.80;;;;;;5050251;28;19929;-68
2022/12/21 11:41:21;;;;;;;;;;;19.50;45.80;;;;;;5050509;28;19932;-67
2022/12/21 11:43:50;;;;;;;;;;;19.50;45.80;;;;;;5067174;28;20539;-68
2022/12/21 11:46:20;;;;;;;;;;;19.50;45.80;;;;;;5057767;28;19929;-65
2022/12/21 11:48:48;;;;;;;;;;;19.50;45.70;;;;;;5051151;28;19983;-67
2022/12/21 11:51:16;;;;;;;;;;;19.40;45.50;;;;;;5054844;28;19968;-67
2022/12/21 11:54:01;;;;;;;;;;;19.50;45.60;;;;;;5049651;28;19975;-67
2022/12/21 11:56:30;;;;;;;;;;;19.50;45.60;;;;;;5050456;28;19983;-67
2022/12/21 11:59:15;;;;;;;;;;;19.50;45.60;;;;;;5048886;28;19952;-68
2022/12/21 12:01:46;;;;;;;;;;;19.40;45.50;;;;;;5051430;28;19990;-67
2022/12/21 12:04:16;;;;;;;;;;;19.50;45.70;;;;;;5048331;28;19987;-71
2022/12/21 12:06:56;;;;;;;;;;;19.40;45.60;;;;;;5050901;28;19926;-70
2022/12/21 12:09:27;;;;;;;;;;;19.40;45.60;;;;;;5049271;28;19924;-71
2022/12/21 12:11:55;;;;;;;;;;;19.50;45.70;;;;;;5050241;28;19972;-69
2022/12/21 12:14:42;;;;;;;;;;;19.50;45.70;;;;;;5043187;28;20231;-70
2022/12/21 12:17:13;;;;;;;;;;;19.50;45.80;;;;;;5067027;28;19984;-71
2022/12/21 12:19:41;;;;;;;;;;;19.40;45.70;;;;;;5035560;28;20020;-68
2022/12/21 12:22:15;;;;;;;;;;;19.40;45.70;;;;;;5061210;28;19951;-70
2022/12/21 12:24:49;;;;;;;;;;;19.40;45.70;;;;;;5040760;28;19929;-68
2022/12/21 12:27:20;;;;;;;;;;;19.50;45.80;;;;;;5067753;28;19972;-70
2022/12/21 12:30:00;;;;;;;;;;;19.50;45.80;;;;;;5058252;28;19924;-69
2022/12/21 12:32:32;;;;;;;;;;;19.40;45.80;;;;;;5058372;28;19933;-69
2022/12/21 12:35:03;;;;;;;;;;;19.50;45.80;;;;;;5050820;28;19924;-69
2022/12/21 12:37:31;;;;;;;;;;;19.50;45.80;;;;;;5045740;28;19928;-72
2022/12/21 12:40:01;;;;;;;;;;;19.50;45.80;;;;;;5059381;28;19924;-72
2022/12/21 12:42:28;;;;;;;;;;;19.50;45.90;;;;;;5054318;28;19958;-72
2022/12/21 12:44:59;;;;;;;;;;;19.50;46.00;;;;;;5054174;28;19978;-71
2022/12/21 12:47:28;;;;;;;;;;;19.50;45.90;;;;;;5066551;28;20396;-71
2022/12/21 12:50:01;;;;;;;;;;;19.50;45.90;;;;;;5052137;28;19925;-70
2022/12/21 12:52:32;;;;;;;;;;;19.50;45.90;;;;;;5053568;28;19965;-70
2022/12/21 12:55:03;;;;;;;;;;;19.50;45.90;;;;;;5052257;28;19932;-69
2022/12/21 12:57:31;;;;;;;;;;;19.50;46.00;;;;;;5070575;28;19924;-68
2022/12/21 12:59:59;;;;;;;;;;;19.50;46.00;;;;;;5054749;28;19932;-71
2022/12/21 13:02:28;;;;;;;;;;;19.50;46.00;;;;;;5054429;28;19982;-67
2022/12/21 13:05:01;;;;;;;;;;;19.60;46.00;;;;;;5069508;28;19925;-67
2022/12/21 13:07:31;;;;;;;;;;;19.60;46.00;;;;;;5036995;28;19951;-67
2022/12/21 13:09:59;;;;;;;;;;;19.50;46.00;;;;;;5052555;28;20447;-70
2022/12/21 13:12:27;;;;;;;;;;;19.60;46.00;;;;;;5053327;28;19984;-69
2022/12/21 13:14:55;;;;;;;;;;;19.50;45.90;;;;;;5053477;28;19929;-68
2022/12/21 13:17:23;;;;;;;;;;;19.60;46.00;;;;;;5049596;28;19932;-70
2022/12/21 13:19:50;;;;;;;;;;;19.60;46.00;;;;;;5057403;28;20293;-69
2022/12/21 13:22:18;;;;;;;;;;;19.60;46.00;;;;;;5057473;28;19975;-68
2022/12/21 13:24:45;;;;;;;;;;;19.60;46.10;;;;;;5049909;28;19925;-69
2022/12/21 13:27:14;;;;;;;;;;;19.60;46.10;;;;;;5049478;28;19984;-69
2022/12/21 13:29:42;;;;;;;;;;;19.60;46.10;;;;;;5049865;28;20014;-69
2022/12/21 13:32:10;;;;;;;;;;;19.60;46.10;;;;;;5059910;28;19928;-69
2022/12/21 13:34:37;;;;;;;;;;;19.60;46.10;;;;;;5063672;28;19971;-69
2022/12/21 13:37:05;;;;;;;;;;;19.60;46.10;;;;;;5050877;28;19928;-69
2022/12/21 13:39:35;;;;;;;;;;;19.60;46.00;;;;;;5050024;28;19929;-68
2022/12/21 13:42:02;;;;;;;;;;;19.60;46.10;;;;;;5050061;28;19925;-69
2022/12/21 13:44:31;;;;;;;;;;;19.60;46.10;;;;;;5052073;28;19925;-67
2022/12/21 13:46:58;;;;;;;;;;;19.60;46.10;;;;;;5054076;28;19932;-68
2022/12/21 13:49:27;;;;;;;;;;;19.60;46.10;;;;;;5048664;28;19936;-68
2022/12/21 13:51:55;;;;;;;;;;;19.60;46.10;;;;;;5048044;28;19974;-71
2022/12/21 13:54:24;;;;;;;;;;;19.60;46.10;;;;;;5053713;28;19929;-70
2022/12/21 13:56:55;;;;;;;;;;;19.60;46.10;;;;;;5050156;28;19983;-69
2022/12/21 13:59:23;;;;;;;;;;;19.60;46.10;;;;;;5052774;28;19929;-71
2022/12/21 14:01:52;;;;;;;;;;;19.60;46.10;;;;;;5044655;28;19929;-73
2022/12/21 14:04:20;;;;;;;;;;;19.60;46.10;;;;;;5041194;28;19995;-71
2022/12/21 14:06:52;;;;;;;;;;;19.60;46.10;;;;;;5054725;28;19996;-70
2022/12/21 14:09:21;;;;;;;;;;;19.60;46.10;;;;;;5063552;28;19935;-72
2022/12/21 14:12:09;;;;;;;;;;;19.60;46.10;;;;;;5050923;28;19925;-72
2022/12/21 14:17:42;;;;;;;;;;;19.60;46.20;;;;;;5072691;27;2010151;-74
2022/12/21 14:20:09;;;;;;;;;;;19.60;46.20;;;;;;5101042;28;19985;-72
2022/12/21 14:22:38;;;;;;;;;;;19.60;46.20;;;;;;5095727;28;19934;-72
2022/12/21 14:25:08;;;;;;;;;;;19.60;46.20;;;;;;5105485;28;20026;-70
2022/12/21 14:27:35;;;;;;;;;;;19.60;46.20;;;;;;5089301;28;19928;-69
2022/12/21 14:30:11;;;;;;;;;;;19.60;46.20;;;;;;5083308;28;19972;-71
2022/12/21 14:32:39;;;;;;;;;;;19.70;46.30;;;;;;5106888;28;19920;-71
2022/12/21 14:35:18;;;;;;;;;;;19.60;46.20;;;;;;5091427;28;19928;-74
2022/12/21 14:37:52;;;;;;;;;;;19.60;46.20;;;;;;5103381;28;20014;-73
2022/12/21 14:40:24;;;;;;;;;;;19.60;46.20;;;;;;5095442;28;19954;-72